Time;durP1;ratioP1;P1;durP2;ratioP2;P2;SDS_P1;SDS_P2;PMS_P1;PMS_P2;Temp;Humidity;BMP_temperature;BMP_pressure;BME280_temperature;BME280_humidity;BME280_pressure;Samples;Min_cycle;Max_cycle;Signal;HPM_P1;HPM_P2
2021/04/12 00:00:05;;;;;;;1.80;0.27;;;13.20;43.70;;;;;;5029839;28;20116;-84
2021/04/12 00:03:06;;;;;;;0.57;0.10;;;13.20;43.70;;;;;;5030506;28;20044;-84
2021/04/12 00:05:56;;;;;;;2.90;0.20;;;13.10;43.80;;;;;;5031791;28;20041;-84
2021/04/12 00:08:27;;;;;;;0.40;0.20;;;13.00;43.90;;;;;;5032901;28;20496;-84
2021/04/12 00:11:06;;;;;;;3.90;0.20;;;12.90;44.00;;;;;;5032197;28;20068;-84
2021/04/12 00:13:38;;;;;;;3.03;0.30;;;13.00;44.50;;;;;;5032434;28;20112;-84
2021/04/12 00:16:07;;;;;;;2.92;0.35;;;12.90;44.00;;;;;;5031138;28;20021;-84
2021/04/12 00:18:55;;;;;;;0.93;0.50;;;12.80;44.20;;;;;;5033452;28;20030;-84
2021/04/12 00:21:45;;;;;;;2.50;0.30;;;12.80;44.60;;;;;;5029817;28;20048;-84
2021/04/12 00:24:14;;;;;;;0.30;0.13;;;12.80;44.60;;;;;;5031312;28;20084;-84
2021/04/12 00:27:03;;;;;;;0.83;0.30;;;12.70;44.50;;;;;;5022001;28;20030;-84
2021/04/12 00:29:33;;;;;;;1.07;0.37;;;12.60;44.80;;;;;;5024740;28;20516;-84
2021/04/12 00:32:07;;;;;;;0.70;0.40;;;12.60;44.90;;;;;;5027751;28;20173;-84
2021/04/12 00:34:57;;;;;;;0.67;0.37;;;12.50;45.00;;;;;;5023146;28;20029;-84
2021/04/12 00:37:25;;;;;;;0.53;0.20;;;12.50;45.30;;;;;;5019292;28;20489;-84
2021/04/12 00:40:20;;;;;;;1.23;0.20;;;12.50;45.20;;;;;;5041255;28;20099;-84
2021/04/12 00:43:06;;;;;;;0.40;0.20;;;12.50;45.20;;;;;;5000941;28;20045;-84
2021/04/12 00:46:03;;;;;;;1.67;0.33;;;12.50;45.30;;;;;;5031928;28;20044;-84
2021/04/12 00:48:50;;;;;;;0.53;0.40;;;12.40;45.60;;;;;;5020354;28;20037;-84
2021/04/12 00:51:22;;;;;;;1.03;0.20;;;12.30;45.90;;;;;;5029043;28;20049;-84
2021/04/12 00:54:12;;;;;;;0.80;0.20;;;12.30;46.00;;;;;;5030655;28;20477;-84
2021/04/12 00:56:47;;;;;;;4.60;0.20;;;12.30;46.20;;;;;;5031654;28;20025;-84
2021/04/12 00:59:27;;;;;;;0.43;0.20;;;12.20;46.40;;;;;;5029846;28;20029;-84
2021/04/12 01:02:36;;;;;;;2.27;0.40;;;12.10;46.70;;;;;;5026093;28;20075;-84
2021/04/12 01:05:39;;;;;;;2.90;0.50;;;12.10;46.90;;;;;;5012320;28;20068;-84
2021/04/12 01:08:49;;;;;;;0.73;0.25;;;12.00;46.90;;;;;;5020655;28;20029;-84
2021/04/12 01:11:31;;;;;;;0.67;0.33;;;12.00;46.80;;;;;;4947084;28;20054;-84
2021/04/12 01:14:13;;;;;;;3.05;0.30;;;11.90;46.80;;;;;;4945667;28;20122;-84
2021/04/12 01:17:26;;;;;;;2.50;0.40;;;11.90;47.10;;;;;;5005006;28;20033;-84
2021/04/12 01:20:07;;;;;;;0.88;0.40;;;11.90;47.40;;;;;;5023238;28;20413;-84
2021/04/12 01:23:11;;;;;;;2.53;0.33;;;11.90;47.30;;;;;;5011768;28;20681;-84
2021/04/12 01:25:52;;;;;;;1.43;0.30;;;11.90;47.40;;;;;;5022558;28;20025;-84
2021/04/12 01:29:02;;;;;;;0.93;0.50;;;11.80;47.40;;;;;;5048214;28;20176;-84
2021/04/12 01:31:48;;;;;;;4.40;1.87;;;11.80;47.80;;;;;;5024713;28;20026;-84
2021/04/12 01:34:17;;;;;;;2.50;0.77;;;11.80;47.70;;;;;;4988508;28;20053;-84
2021/04/12 01:36:55;;;;;;;6.23;0.50;;;11.70;47.80;;;;;;5026420;28;20077;-84
2021/04/12 01:39:57;;;;;;;1.53;0.40;;;11.70;48.20;;;;;;5042419;28;20490;-84
2021/04/12 01:42:54;;;;;;;1.15;0.60;;;11.70;48.50;;;;;;5020198;28;20037;-84
2021/04/12 01:45:47;;;;;;;2.70;0.50;;;11.60;48.50;;;;;;5031038;28;20034;-84
2021/04/12 01:48:34;;;;;;;2.35;0.40;;;11.50;48.70;;;;;;5020190;28;20064;-84
2021/04/12 01:51:19;;;;;;;1.60;0.60;;;11.40;48.90;;;;;;5014127;28;20124;-84
2021/04/12 01:54:18;;;;;;;2.43;0.47;;;11.40;49.20;;;;;;5019117;28;20040;-84
2021/04/12 01:57:07;;;;;;;1.83;0.37;;;11.40;49.20;;;;;;5012920;28;20026;-84
2021/04/12 01:59:58;;;;;;;0.70;0.20;;;11.30;49.30;;;;;;5026834;28;20107;-84
2021/04/12 02:02:37;;;;;;;1.60;0.50;;;11.30;49.50;;;;;;5023863;28;20037;-84
2021/04/12 02:05:08;;;;;;;6.10;2.60;;;11.30;50.00;;;;;;5026430;28;20029;-84
2021/04/12 02:07:45;;;;;;;15.03;7.17;;;11.20;50.00;;;;;;5033507;28;20018;-84
2021/04/12 02:10:18;;;;;;;15.03;8.97;;;11.30;50.20;;;;;;5020978;28;20025;-84
2021/04/12 02:12:59;;;;;;;;;;;11.40;49.90;;;;;;5034609;28;20022;-84
2021/04/12 02:16:13;;;;;;;25.17;18.13;;;11.50;49.60;;;;;;5032502;28;20273;-84
2021/04/12 02:18:57;;;;;;;3.20;1.70;;;11.60;49.30;;;;;;5020385;28;20026;-84
2021/04/12 02:21:32;;;;;;;4.33;1.53;;;11.60;49.30;;;;;;5031910;28;20021;-84
2021/04/12 02:23:58;;;;;;;3.87;1.10;;;11.50;49.40;;;;;;5033062;28;20033;-84
2021/04/12 02:26:54;;;;;;;3.63;1.13;;;11.50;49.60;;;;;;5035836;28;20022;-84
2021/04/12 02:29:30;;;;;;;5.23;1.23;;;11.50;49.80;;;;;;5034294;28;20029;-84
2021/04/12 02:32:30;;;;;;;2.23;1.20;;;11.50;49.70;;;;;;5029947;28;20126;-84
2021/04/12 02:35:18;;;;;;;3.80;1.20;;;11.40;50.10;;;;;;5031677;28;20025;-84
2021/04/12 02:38:05;;;;;;;6.13;1.60;;;11.40;50.10;;;;;;5035177;28;20492;-84
2021/04/12 02:40:33;;;;;;;4.90;1.73;;;11.40;50.30;;;;;;5023663;28;20032;-84
2021/04/12 02:43:19;;;;;;;2.00;1.20;;;11.40;50.20;;;;;;5033414;28;20056;-84
2021/04/12 02:45:53;;;;;;;1.77;0.83;;;11.40;50.50;;;;;;5035847;28;20504;-84
2021/04/12 02:48:44;;;;;;;2.40;1.10;;;11.30;50.60;;;;;;5029653;28;20026;-84
2021/04/12 02:51:23;;;;;;;3.20;1.50;;;11.40;50.60;;;;;;5032461;28;20022;-84
2021/04/12 02:54:10;;;;;;;2.23;1.30;;;11.40;50.60;;;;;;5023447;28;20036;-84
2021/04/12 02:57:13;;;;;;;1.87;1.30;;;11.40;50.60;;;;;;5024863;28;20025;-83
2021/04/12 03:00:15;;;;;;;6.60;3.45;;;11.30;50.90;;;;;;5043026;28;20049;-82
2021/04/12 03:03:06;;;;;;;10.93;3.67;;;11.20;50.70;;;;;;5039693;28;20113;-83
2021/04/12 03:06:01;;;;;;;5.80;1.93;;;11.20;50.80;;;;;;5016673;28;20633;-82
2021/04/12 03:08:31;;;;;;;4.60;1.60;;;11.20;50.90;;;;;;5025123;28;20036;-83
2021/04/12 03:11:16;;;;;;;4.33;1.63;;;11.20;50.90;;;;;;5048310;28;20148;-82
2021/04/12 03:14:15;;;;;;;2.03;1.30;;;11.20;50.90;;;;;;5031415;28;20389;-83
2021/04/12 03:17:02;;;;;;;4.70;1.23;;;11.20;50.90;;;;;;5028014;28;20033;-83
2021/04/12 03:20:16;;;;;;;1.53;0.90;;;11.20;50.80;;;;;;5031955;28;20025;-83
2021/04/12 03:23:10;;;;;;;2.67;1.30;;;11.20;51.00;;;;;;5033582;28;20080;-83
2021/04/12 03:26:13;;;;;;;2.37;1.27;;;11.10;51.30;;;;;;5029897;28;20034;-82
2021/04/12 03:29:00;;;;;;;5.70;1.35;;;11.10;51.50;;;;;;5027172;28;20037;-82
2021/04/12 03:31:53;;;;;;;5.80;1.27;;;11.10;51.30;;;;;;5030630;28;20034;-82
2021/04/12 03:34:32;;;;;;;3.10;1.27;;;11.10;51.50;;;;;;5032319;28;20483;-83
2021/04/12 03:37:31;;;;;;;1.77;1.00;;;11.10;51.40;;;;;;5028877;28;20049;-83
2021/04/12 03:40:23;;;;;;;8.17;2.60;;;11.00;51.70;;;;;;5037135;28;20060;-83
2021/04/12 03:42:58;;;;;;;4.73;1.70;;;10.90;51.80;;;;;;5025778;28;20018;-83
2021/04/12 03:46:05;;;;;;;3.57;1.93;;;10.90;51.90;;;;;;5016387;28;20081;-83
2021/04/12 03:48:45;;;;;;;3.17;1.80;;;10.80;52.10;;;;;;5024101;28;20116;-82
2021/04/12 03:51:23;;;;;;;4.70;1.20;;;10.80;52.30;;;;;;5032644;28;20042;-83
2021/04/12 03:54:14;;;;;;;5.67;2.00;;;10.70;52.40;;;;;;5032816;28;20029;-82
2021/04/12 03:56:42;;;;;;;5.50;2.00;;;10.60;52.70;;;;;;5031713;28;20029;-82
2021/04/12 03:59:42;;;;;;;5.90;3.00;;;10.60;52.50;;;;;;5032535;28;20079;-82
2021/04/12 04:02:41;;;;;;;3.97;2.57;;;10.70;52.80;;;;;;5030814;28;20104;-83
2021/04/12 04:05:19;;;;;;;3.67;2.23;;;10.60;52.80;;;;;;5029330;28;20571;-83
2021/04/12 04:07:53;;;;;;;4.27;2.37;;;10.50;52.80;;;;;;5030031;28;20021;-83
2021/04/12 04:10:28;;;;;;;4.50;2.53;;;10.60;52.90;;;;;;5026670;28;20032;-82
2021/04/12 04:13:18;;;;;;;4.90;1.60;;;10.60;52.90;;;;;;5026094;28;20049;-82
2021/04/12 04:16:13;;;;;;;4.67;1.70;;;10.50;53.00;;;;;;5022316;28;20359;-82
2021/04/12 04:19:16;;;;;;;5.10;4.23;;;10.50;53.10;;;;;;5023382;28;20116;-82
2021/04/12 04:21:42;;;;;;;4.97;3.40;;;10.40;53.40;;;;;;5017334;28;20030;-82
2021/04/12 04:24:32;;;;;;;5.87;3.10;;;10.40;53.40;;;;;;5019711;28;20487;-82
2021/04/12 04:26:58;;;;;;;5.03;3.33;;;10.40;53.70;;;;;;5027157;28;20030;-83
2021/04/12 04:29:25;;;;;;;7.20;3.67;;;10.50;53.60;;;;;;5033037;28;20381;-82
2021/04/12 04:31:59;;;;;;;6.03;3.60;;;10.50;53.70;;;;;;5028957;28;20041;-82
2021/04/12 04:34:45;;;;;;;5.20;2.80;;;10.60;53.70;;;;;;5025878;28;20045;-82
2021/04/12 04:37:50;;;;;;;2.70;1.90;;;10.60;53.70;;;;;;5025026;28;20041;-83
2021/04/12 04:40:32;;;;;;;5.63;2.00;;;10.60;53.90;;;;;;5031448;28;20434;-82
2021/04/12 04:43:49;;;;;;;7.30;4.33;;;10.50;54.00;;;;;;5023176;28;20401;-82
2021/04/12 04:46:36;;;;;;;8.90;5.17;;;10.50;54.30;;;;;;4986612;28;20048;-82
2021/04/12 04:49:12;;;;;;;7.40;4.50;;;10.50;54.20;;;;;;5032847;28;20078;-82
2021/04/12 04:52:04;;;;;;;5.07;3.50;;;10.60;54.10;;;;;;5031790;28;20028;-82
2021/04/12 04:55:07;;;;;;;7.87;2.90;;;10.60;54.10;;;;;;5032804;28;20052;-82
2021/04/12 04:57:42;;;;;;;8.20;2.50;;;10.70;54.00;;;;;;5026867;28;20416;-83
2021/04/12 05:00:19;;;;;;;3.07;2.07;;;10.70;53.90;;;;;;5030362;28;20076;-83
2021/04/12 05:02:51;;;;;;;7.97;2.53;;;10.70;54.10;;;;;;5020364;28;20031;-83
2021/04/12 05:05:43;;;;;;;7.77;2.83;;;10.80;54.10;;;;;;5028140;28;20041;-83
2021/04/12 05:08:32;;;;;;;4.00;2.40;;;10.80;54.00;;;;;;5028055;28;20768;-83
2021/04/12 05:11:22;;;;;;;8.60;2.20;;;10.80;54.00;;;;;;5024996;28;20397;-82
2021/04/12 05:14:34;;;;;;;5.00;2.50;;;10.80;53.90;;;;;;5017330;28;20417;-83
2021/04/12 05:17:03;;;;;;;4.10;2.83;;;10.70;54.40;;;;;;5019843;28;20045;-83
2021/04/12 05:19:59;;;;;;;7.57;2.63;;;10.70;54.40;;;;;;5027147;28;20065;-83
2021/04/12 05:22:34;;;;;;;9.03;3.00;;;10.70;54.70;;;;;;5022590;28;20113;-82
2021/04/12 05:25:18;;;;;;;11.17;3.13;;;10.60;54.90;;;;;;5029403;28;20456;-83
2021/04/12 05:28:11;;;;;;;6.43;2.73;;;10.60;55.20;;;;;;5016110;28;20056;-83
2021/04/12 05:30:40;;;;;;;;;;;10.70;55.30;;;;;;5012096;28;20469;-83
2021/04/12 05:33:27;;;;;;;9.00;3.03;;;10.70;54.90;;;;;;5038416;28;19998;-83
2021/04/12 05:36:25;;;;;;;4.83;2.60;;;10.70;55.10;;;;;;5030774;28;20049;-82
2021/04/12 05:39:15;;;;;;;7.87;4.73;;;10.80;55.20;;;;;;5023825;28;20482;-82
2021/04/12 05:41:56;;;;;;;10.67;3.10;;;10.90;55.00;;;;;;5034858;28;20424;-82
2021/04/12 05:44:59;;;;;;;9.37;2.93;;;10.90;55.00;;;;;;5016358;28;20030;-82
2021/04/12 05:47:37;;;;;;;8.45;3.70;;;11.00;55.00;;;;;;5028223;28;20026;-82
2021/04/12 05:50:13;;;;;;;8.10;3.33;;;11.10;54.80;;;;;;5025252;28;20091;-82
2021/04/12 05:53:26;;;;;;;8.13;3.00;;;11.10;54.80;;;;;;5028218;28;20385;-82
2021/04/12 05:55:58;;;;;;;6.75;2.55;;;11.10;54.90;;;;;;4956899;28;20086;-82
2021/04/12 05:59:09;;;;;;;13.70;3.17;;;11.10;54.80;;;;;;4956154;28;20047;-82
2021/04/12 06:01:44;;;;;;;9.77;3.07;;;11.20;55.10;;;;;;5017539;28;20033;-82
2021/04/12 06:04:55;;;;;;;9.63;2.90;;;11.20;55.20;;;;;;5025895;28;20025;-82
2021/04/12 06:07:42;;;;;;;12.40;2.70;;;11.20;55.40;;;;;;4998876;28;20033;-82
2021/04/12 06:10:26;;;;;;;5.93;2.53;;;11.20;55.40;;;;;;5031885;28;20148;-82
2021/04/12 06:13:20;;;;;;;15.60;2.70;;;11.30;55.40;;;;;;5019211;28;20488;-82
2021/04/12 06:16:27;;;;;;;9.27;3.00;;;11.30;55.80;;;;;;5033234;28;20495;-82
2021/04/12 06:19:17;;;;;;;8.37;2.40;;;11.30;55.90;;;;;;5029993;28;20029;-82
2021/04/12 06:21:48;;;;;;;10.70;3.03;;;11.40;56.20;;;;;;5028564;28;20029;-82
2021/04/12 06:25:02;;;;;;;15.10;4.73;;;11.40;56.20;;;;;;5034506;28;20377;-82
2021/04/12 06:27:37;;;;;;;;;;;11.50;56.40;;;;;;5018893;28;20096;-82
2021/04/12 06:30:24;;;;;;;19.60;5.07;;;11.50;56.00;;;;;;5033822;28;19916;-83
2021/04/12 06:33:24;;;;;;;10.03;3.73;;;11.40;56.30;;;;;;5026268;28;20029;-83
2021/04/12 06:36:11;;;;;;;10.37;3.50;;;11.50;56.90;;;;;;5043944;28;20104;-82
2021/04/12 06:38:40;;;;;;;6.53;3.80;;;11.50;57.10;;;;;;5030051;28;20025;-83
2021/04/12 06:41:24;;;;;;;10.67;3.37;;;11.50;57.20;;;;;;5032242;28;20032;-82
2021/04/12 06:44:17;;;;;;;11.73;4.23;;;11.60;57.80;;;;;;5039617;28;20032;-82
2021/04/12 06:46:58;;;;;;;7.10;3.55;;;11.60;58.20;;;;;;5030071;28;20533;-82
2021/04/12 06:49:47;;;;;;;10.00;3.60;;;11.60;58.50;;;;;;5030350;28;20029;-82
2021/04/12 06:52:28;;;;;;;3.60;3.27;;;11.60;59.00;;;;;;5046790;28;20107;-82
2021/04/12 06:55:24;;;;;;;3.60;3.17;;;11.70;59.50;;;;;;5029445;28;20196;-83
2021/04/12 06:58:07;;;;;;;4.70;3.17;;;11.80;59.70;;;;;;5033478;28;20504;-82
2021/04/12 07:00:54;;;;;;;5.67;3.47;;;11.80;60.00;;;;;;5028454;28;20079;-82
2021/04/12 07:03:53;;;;;;;4.67;3.47;;;11.90;60.40;;;;;;5033524;28;20027;-82
2021/04/12 07:06:43;;;;;;;7.20;3.47;;;11.90;60.70;;;;;;5029030;28;20021;-82
2021/04/12 07:09:30;;;;;;;4.37;2.90;;;12.00;60.90;;;;;;5033136;28;20366;-82
2021/04/12 07:12:14;;;;;;;4.20;3.17;;;11.90;60.90;;;;;;5035903;28;20022;-82
2021/04/12 07:15:08;;;;;;;1.20;1.10;;;11.90;61.60;;;;;;5030191;28;20033;-83
2021/04/12 07:17:53;;;;;;;2.47;1.63;;;11.80;61.70;;;;;;5030925;28;20029;-82
2021/04/12 07:20:28;;;;;;;1.50;1.20;;;11.80;61.40;;;;;;5030104;28;20033;-83
2021/04/12 07:23:27;;;;;;;1.80;1.50;;;11.90;61.30;;;;;;5025549;28;20060;-82
2021/04/12 07:26:14;;;;;;;1.30;0.63;;;11.90;61.30;;;;;;5030526;28;20018;-82
2021/04/12 07:29:09;;;;;;;1.17;0.43;;;11.80;60.80;;;;;;5022615;28;20040;-82
2021/04/12 07:32:03;;;;;;;1.10;0.50;;;11.90;60.10;;;;;;5029784;28;20022;-83
2021/04/12 07:35:01;;;;;;;0.40;0.30;;;11.90;59.50;;;;;;5029016;28;20071;-82
2021/04/12 07:37:38;;;;;;;2.23;0.40;;;11.90;59.30;;;;;;5028004;28;20045;-82
2021/04/12 07:40:42;;;;;;;1.57;0.30;;;11.90;59.10;;;;;;5028640;28;21185;-83
2021/04/12 07:46:55;;;;;;;0.57;0.30;;;11.90;58.40;;;;;;5022336;28;20018;-82
2021/04/12 07:49:27;;;;;;;0.30;0.20;;;11.90;58.20;;;;;;5023485;28;20040;-82
2021/04/12 07:52:15;;;;;;;0.50;0.17;;;11.80;57.70;;;;;;5015195;28;20026;-82
2021/04/12 07:54:47;;;;;;;0.23;0.10;;;11.80;57.80;;;;;;5012263;28;20513;-82
2021/04/12 07:57:35;;;;;;;0.63;0.20;;;11.80;57.60;;;;;;5042280;28;20026;-82
2021/04/12 08:03:59;;;;;;;1.40;0.20;;;11.80;57.00;;;;;;5031128;28;20029;-82
2021/04/12 08:06:32;;;;;;;0.30;0.20;;;11.60;56.20;;;;;;5032050;28;20053;-82
2021/04/12 08:09:17;;;;;;;0.77;0.30;;;11.60;55.90;;;;;;5031513;28;20045;-82
2021/04/12 08:12:04;;;;;;;0.20;0.20;;;11.60;55.80;;;;;;5031453;28;20105;-82
2021/04/12 08:15:07;;;;;;;0.10;0.00;;;11.60;55.80;;;;;;5015523;28;20124;-82
2021/04/12 08:18:03;;;;;;;0.77;0.20;;;11.50;55.30;;;;;;5018348;28;20064;-82
2021/04/12 08:21:02;;;;;;;0.10;0.10;;;11.50;55.20;;;;;;5045716;28;20088;-83
2021/04/12 08:24:04;;;;;;;0.50;0.10;;;11.20;54.20;;;;;;4996397;28;20044;-82
2021/04/12 08:27:07;;;;;;;0.30;0.20;;;11.10;54.50;;;;;;5027148;28;20374;-82
2021/04/12 08:30:10;;;;;;;3.75;0.43;;;11.20;54.70;;;;;;5032270;28;20433;-82
2021/04/12 08:33:07;;;;;;;0.50;0.30;;;11.20;54.10;;;;;;5018042;28;20025;-83
2021/04/12 08:35:55;;;;;;;0.50;0.30;;;11.10;53.80;;;;;;5043322;28;20045;-82
2021/04/12 08:38:45;;;;;;;0.70;0.10;;;10.90;53.60;;;;;;5031462;28;20485;-82
2021/04/12 08:41:49;;;;;;;0.40;0.20;;;10.90;53.20;;;;;;5021622;28;20156;-82
2021/04/12 08:44:52;;;;;;;0.10;0.00;;;10.80;52.90;;;;;;5028260;28;20052;-82
2021/04/12 08:47:27;;;;;;;0.63;0.13;;;10.60;52.50;;;;;;5027503;28;20440;-82
2021/04/12 08:50:08;;;;;;;2.13;0.30;;;10.50;52.40;;;;;;5036853;28;20036;-83
2021/04/12 08:52:46;;;;;;;0.20;0.10;;;10.50;52.90;;;;;;5034160;28;20034;-82
2021/04/12 08:55:21;;;;;;;0.93;0.20;;;10.60;52.50;;;;;;5026422;28;20470;-83
2021/04/12 08:58:05;;;;;;;0.40;0.10;;;10.60;52.20;;;;;;5026291;28;20032;-82
2021/04/12 09:00:52;;;;;;;0.40;0.03;;;10.70;51.80;;;;;;5025111;28;20034;-83
2021/04/12 09:03:44;;;;;;;0.80;0.20;;;10.70;51.60;;;;;;5030490;28;20033;-82
2021/04/12 09:06:22;;;;;;;0.37;0.10;;;10.60;50.90;;;;;;5035709;28;20033;-82
2021/04/12 09:09:25;;;;;;;0.33;0.10;;;10.50;51.50;;;;;;5028631;28;20028;-82
2021/04/12 09:12:18;;;;;;;1.05;0.30;;;10.40;51.00;;;;;;5031503;28;20413;-82
2021/04/12 09:15:24;;;;;;;0.53;0.20;;;10.60;51.20;;;;;;5027568;28;20080;-82
2021/04/12 09:18:29;;;;;;;0.30;0.20;;;10.80;51.00;;;;;;5021629;28;20029;-82
2021/04/12 09:20:57;;;;;;;1.80;0.33;;;10.90;50.90;;;;;;5030176;28;20025;-82
2021/04/12 09:23:56;;;;;;;0.10;0.10;;;10.90;50.80;;;;;;5011703;28;20026;-82
2021/04/12 09:26:39;;;;;;;0.30;0.10;;;11.00;50.10;;;;;;5011892;28;20029;-82
2021/04/12 09:29:17;;;;;;;0.07;0.03;;;10.80;50.00;;;;;;5030517;28;20033;-82
2021/04/12 09:32:04;;;;;;;2.60;0.20;;;10.90;50.40;;;;;;5021175;28;20504;-82
2021/04/12 09:34:55;;;;;;;0.23;0.13;;;10.90;50.50;;;;;;5027646;28;20435;-82
2021/04/12 09:37:59;;;;;;;0.20;0.10;;;10.90;51.00;;;;;;5025860;28;20433;-82
2021/04/12 09:40:49;;;;;;;0.60;0.30;;;10.80;50.70;;;;;;5023562;28;20041;-82
2021/04/12 09:43:52;;;;;;;0.30;0.10;;;10.90;50.90;;;;;;5046139;28;20029;-82
2021/04/12 09:46:37;;;;;;;1.98;0.20;;;10.80;50.60;;;;;;5028167;28;20029;-82
2021/04/12 09:49:34;;;;;;;1.23;0.30;;;10.60;51.20;;;;;;5016748;28;20022;-82
2021/04/12 09:52:32;;;;;;;1.50;0.10;;;10.70;51.00;;;;;;5022185;28;20080;-82
2021/04/12 09:55:26;;;;;;;1.60;0.40;;;10.90;51.40;;;;;;5012682;28;20025;-82
2021/04/12 09:58:16;;;;;;;0.80;0.30;;;10.80;50.70;;;;;;5028677;28;20445;-82
2021/04/12 10:01:06;;;;;;;0.60;0.20;;;10.70;50.70;;;;;;5032319;28;20056;-82
2021/04/12 10:03:51;;;;;;;0.30;0.20;;;10.60;51.10;;;;;;5023153;28;20118;-82
2021/04/12 10:06:46;;;;;;;0.57;0.17;;;10.60;51.30;;;;;;5030893;28;20030;-82
2021/04/12 10:09:30;;;;;;;1.23;0.10;;;10.60;51.40;;;;;;5032378;28;20098;-82
2021/04/12 10:12:33;;;;;;;0.10;0.10;;;10.50;51.30;;;;;;5029727;28;20133;-82
2021/04/12 10:15:05;;;;;;;0.10;0.10;;;10.70;51.20;;;;;;5034259;28;20125;-82
2021/04/12 10:17:57;;;;;;;0.13;0.10;;;10.70;51.10;;;;;;5047007;28;20113;-82
2021/04/12 10:20:33;;;;;;;0.90;0.20;;;10.60;51.30;;;;;;5027143;28;20029;-82
2021/04/12 10:23:01;;;;;;;0.53;0.10;;;10.50;51.60;;;;;;5025188;28;20021;-82
2021/04/12 10:25:47;;;;;;;0.30;0.10;;;10.50;51.60;;;;;;5032165;28;20386;-82
2021/04/12 10:28:16;;;;;;;2.43;0.30;;;10.50;51.70;;;;;;5034021;28;20029;-81
2021/04/12 10:30:50;;;;;;;0.20;0.10;;;10.50;51.70;;;;;;5031434;28;20160;-82
2021/04/12 10:33:26;;;;;;;0.53;0.10;;;10.50;52.00;;;;;;5028779;28;20558;-83
2021/04/12 10:36:33;;;;;;;0.53;0.10;;;10.50;51.80;;;;;;5029871;28;20072;-82
2021/04/12 10:39:07;;;;;;;0.40;0.20;;;10.40;51.80;;;;;;5032233;28;20034;-82
2021/04/12 10:41:49;;;;;;;0.90;0.33;;;10.50;52.00;;;;;;5034430;28;20018;-82
2021/04/12 10:44:40;;;;;;;0.40;0.30;;;10.50;52.40;;;;;;5031333;28;20047;-83
2021/04/12 10:47:41;;;;;;;0.93;0.20;;;10.40;52.70;;;;;;5034177;28;20083;-83
2021/04/12 10:50:51;;;;;;;0.50;0.20;;;10.40;52.90;;;;;;5034379;28;20029;-83
2021/04/12 10:53:44;;;;;;;0.20;0.20;;;10.50;52.80;;;;;;4995182;28;20061;-82
2021/04/12 10:56:25;;;;;;;0.32;0.13;;;10.40;52.60;;;;;;5038662;28;20033;-82
2021/04/12 10:59:09;;;;;;;0.20;0.20;;;10.50;52.70;;;;;;5022537;28;20045;-82
2021/04/12 11:01:43;;;;;;;0.53;0.20;;;10.40;52.70;;;;;;5014182;28;20022;-82
2021/04/12 11:04:18;;;;;;;7.93;0.40;;;10.40;52.90;;;;;;5027410;28;20030;-82
2021/04/12 11:06:54;;;;;;;1.00;0.30;;;10.40;53.00;;;;;;5032980;28;20029;-83
2021/04/12 11:09:36;;;;;;;1.17;0.50;;;10.40;53.60;;;;;;5035141;28;20021;-82
2021/04/12 11:12:17;;;;;;;1.75;0.43;;;10.30;53.80;;;;;;5033369;28;20032;-83
2021/04/12 11:15:08;;;;;;;1.97;0.50;;;10.10;53.90;;;;;;5033645;28;20032;-83
2021/04/12 11:17:52;;;;;;;1.47;0.40;;;10.00;54.70;;;;;;5029874;28;20033;-83
2021/04/12 11:20:55;;;;;;;1.60;0.30;;;10.00;54.70;;;;;;5026482;28;20489;-83
2021/04/12 11:23:53;;;;;;;0.30;0.20;;;10.10;54.50;;;;;;4993381;28;20049;-83
2021/04/12 11:26:34;;;;;;;1.37;0.70;;;10.10;54.30;;;;;;5025781;28;20025;-83
2021/04/12 11:29:30;;;;;;;9.67;4.50;;;10.20;54.10;;;;;;5033407;28;20032;-83
2021/04/12 11:32:37;;;;;;;16.23;8.97;;;10.10;54.60;;;;;;5017493;28;20029;-83
2021/04/12 11:35:09;;;;;;;16.13;8.37;;;10.00;54.80;;;;;;4972110;28;20464;-83
2021/04/12 11:37:58;;;;;;;13.50;8.32;;;10.00;54.90;;;;;;4975058;28;20050;-83
2021/04/12 11:40:29;;;;;;;9.57;7.03;;;9.70;55.60;;;;;;5020500;28;20049;-82
2021/04/12 11:43:02;;;;;;;5.37;3.60;;;9.60;55.80;;;;;;5032672;28;20044;-83
2021/04/12 11:45:38;;;;;;;4.80;1.70;;;9.60;56.50;;;;;;5033729;28;20229;-83
2021/04/12 11:48:20;;;;;;;2.53;0.70;;;9.60;56.20;;;;;;5030483;28;20041;-82
2021/04/12 11:50:58;;;;;;;1.53;0.70;;;9.50;56.20;;;;;;5028760;28;20547;-81
2021/04/12 11:53:27;;;;;;;1.50;0.60;;;9.40;56.30;;;;;;5028597;28;20026;-82
2021/04/12 11:56:01;;;;;;;4.53;0.80;;;9.40;56.50;;;;;;5033090;28;20048;-82
2021/04/12 11:58:50;;;;;;;4.30;0.60;;;9.30;56.60;;;;;;5020210;28;20104;-82
2021/04/12 12:01:19;;;;;;;1.33;0.70;;;9.40;56.60;;;;;;5028321;28;20469;-83
2021/04/12 12:03:54;;;;;;;2.57;0.67;;;9.50;56.10;;;;;;5020160;28;20034;-83
2021/04/12 12:06:35;;;;;;;1.50;0.97;;;9.40;56.50;;;;;;5022263;28;20026;-83
2021/04/12 12:09:23;;;;;;;3.63;1.20;;;9.40;56.50;;;;;;5028643;28;20485;-82
2021/04/12 12:12:30;;;;;;;3.73;1.47;;;9.50;56.60;;;;;;5017492;28;20117;-82
2021/04/12 12:15:08;;;;;;;3.93;1.50;;;9.50;56.90;;;;;;5024369;28;20032;-82
2021/04/12 12:17:46;;;;;;;2.33;1.00;;;9.40;56.70;;;;;;5012667;28;20053;-83
2021/04/12 12:20:22;;;;;;;2.33;1.27;;;9.40;57.10;;;;;;5029277;28;20064;-82
2021/04/12 12:22:55;;;;;;;2.73;1.63;;;9.30;57.10;;;;;;5031871;28;20022;-83
2021/04/12 12:25:42;;;;;;;7.20;2.10;;;9.30;57.10;;;;;;5028871;28;20034;-82
2021/04/12 12:28:17;;;;;;;1.80;0.70;;;9.40;57.20;;;;;;5012969;28;20109;-82
2021/04/12 12:31:02;;;;;;;4.67;1.37;;;9.40;57.20;;;;;;5032225;28;20496;-82
2021/04/12 12:33:49;;;;;;;2.47;1.20;;;9.60;57.00;;;;;;5027364;28;20033;-82
2021/04/12 12:37:01;;;;;;;1.63;1.10;;;9.50;57.00;;;;;;5029148;28;20077;-82
2021/04/12 12:39:30;;;;;;;2.40;1.30;;;9.40;57.00;;;;;;4979060;28;20068;-82
2021/04/12 12:42:01;;;;;;;1.60;1.10;;;9.50;57.30;;;;;;5030275;28;20079;-83
2021/04/12 12:44:29;;;;;;;2.90;1.40;;;9.50;57.30;;;;;;5013229;28;20032;-82
2021/04/12 12:46:56;;;;;;;1.43;0.80;;;9.50;57.30;;;;;;5012399;28;20092;-82
2021/04/12 12:49:21;;;;;;;2.60;0.73;;;9.50;57.30;;;;;;5042903;28;20505;-83
2021/04/12 12:51:53;;;;;;;1.17;0.60;;;9.40;57.30;;;;;;5013392;28;20060;-83
2021/04/12 12:54:31;;;;;;;2.55;1.20;;;9.30;57.30;;;;;;5030296;28;20779;-82
2021/04/12 12:57:24;;;;;;;1.43;0.80;;;9.20;57.50;;;;;;5030714;28;20045;-83
2021/04/12 12:59:52;;;;;;;2.87;0.93;;;9.30;57.90;;;;;;5010277;28;20094;-83
2021/04/12 13:02:27;;;;;;;2.00;1.10;;;9.40;57.20;;;;;;5032879;28;20528;-84
2021/04/12 13:05:14;;;;;;;1.40;0.90;;;9.20;57.50;;;;;;5040161;28;20017;-84
2021/04/12 13:07:41;;;;;;;1.60;1.20;;;9.10;57.90;;;;;;5012269;28;20026;-83
2021/04/12 13:10:25;;;;;;;2.27;1.30;;;9.20;57.80;;;;;;5025267;28;20025;-84
2021/04/12 13:12:53;;;;;;;2.37;1.40;;;9.30;57.90;;;;;;5037882;28;20030;-83
2021/04/12 13:15:36;;;;;;;3.87;1.40;;;9.30;57.70;;;;;;5028584;28;20049;-84
2021/04/12 13:18:30;;;;;;;2.22;1.40;;;9.40;57.70;;;;;;5026414;28;20025;-83
2021/04/12 13:21:14;;;;;;;2.00;1.50;;;9.40;57.60;;;;;;4999578;28;20049;-83
2021/04/12 13:23:43;;;;;;;1.87;1.33;;;9.40;57.60;;;;;;5031615;28;20034;-83
2021/04/12 13:26:25;;;;;;;2.03;1.40;;;9.40;57.70;;;;;;5028851;28;20526;-84
2021/04/12 13:28:52;;;;;;;4.28;1.63;;;9.30;57.80;;;;;;5014404;28;20034;-83
2021/04/12 13:31:22;;;;;;;3.57;1.60;;;9.30;57.70;;;;;;5030641;28;20033;-84
2021/04/12 13:33:51;;;;;;;3.63;2.10;;;9.30;58.10;;;;;;5027304;28;20057;-84
2021/04/12 13:36:17;;;;;;;2.73;1.60;;;9.30;57.90;;;;;;5023893;28;20077;-83
2021/04/12 13:38:44;;;;;;;2.00;1.70;;;9.30;58.00;;;;;;5025648;28;20022;-84
2021/04/12 13:41:21;;;;;;;2.23;1.70;;;9.40;57.80;;;;;;5028463;28;20045;-84
2021/04/12 13:44:05;;;;;;;3.07;2.10;;;9.20;57.60;;;;;;5030319;28;20025;-83
2021/04/12 13:46:36;;;;;;;3.70;2.27;;;9.20;57.60;;;;;;5030967;28;20120;-84
2021/04/12 13:49:12;;;;;;;3.40;2.30;;;9.10;57.90;;;;;;5030667;28;20096;-84
2021/04/12 13:51:46;;;;;;;5.23;2.53;;;9.20;57.90;;;;;;5026223;28;20037;-84
2021/04/12 13:54:30;;;;;;;3.53;1.90;;;9.20;58.00;;;;;;5027594;28;20489;-84
2021/04/12 13:57:05;;;;;;;4.13;2.40;;;9.20;57.90;;;;;;5028072;28;20022;-84
2021/04/12 13:59:37;;;;;;;3.67;2.07;;;9.30;57.90;;;;;;5018726;28;20501;-83
2021/04/12 14:02:26;;;;;;;2.63;2.00;;;9.30;57.70;;;;;;5024659;28;20049;-83
2021/04/12 14:04:56;;;;;;;4.27;1.90;;;9.30;57.70;;;;;;5029830;28;20636;-84
2021/04/12 14:07:40;;;;;;;2.83;1.90;;;9.30;57.60;;;;;;5030176;28;20024;-83
2021/04/12 14:10:21;;;;;;;3.30;2.10;;;9.20;57.90;;;;;;5034493;28;20086;-84
2021/04/12 14:13:16;;;;;;;7.57;2.47;;;9.20;57.90;;;;;;5031278;28;20064;-85
2021/04/12 14:16:03;;;;;;;2.70;1.97;;;9.30;57.80;;;;;;5026894;28;20484;-84
2021/04/12 14:18:35;;;;;;;7.27;3.57;;;9.40;57.70;;;;;;5029130;28;20428;-84
2021/04/12 14:21:11;;;;;;;4.90;2.60;;;9.40;57.70;;;;;;5029910;28;20029;-83
2021/04/12 14:23:56;;;;;;;5.47;3.10;;;9.40;57.60;;;;;;5027943;28;20021;-83
2021/04/12 14:26:45;;;;;;;3.47;2.73;;;9.30;57.90;;;;;;5035570;28;20057;-84
2021/04/12 14:29:22;;;;;;;5.73;3.07;;;9.30;58.10;;;;;;5023087;28;20030;-83